sensor_id;sensor_type;location;lat;lon;timestamp;P1;durP1;ratioP1;P2;durP2;ratioP2
23866;SDS011;12114;53.404;-1.502;2023-04-03T00:01:40;11.00;;;6.43;;
23866;SDS011;12114;53.404;-1.502;2023-04-03T00:04:24;12.25;;;7.22;;
23866;SDS011;12114;53.404;-1.502;2023-04-03T00:07:08;12.02;;;6.47;;
23866;SDS011;12114;53.404;-1.502;2023-04-03T00:09:52;13.10;;;6.68;;
23866;SDS011;12114;53.404;-1.502;2023-04-03T00:12:36;12.95;;;7.03;;
23866;SDS011;12114;53.404;-1.502;2023-04-03T00:15:20;14.52;;;6.75;;
23866;SDS011;12114;53.404;-1.502;2023-04-03T00:18:04;14.45;;;7.25;;
23866;SDS011;12114;53.404;-1.502;2023-04-03T00:20:48;14.48;;;6.72;;
23866;SDS011;12114;53.404;-1.502;2023-04-03T00:23:32;12.00;;;6.13;;
23866;SDS011;12114;53.404;-1.502;2023-04-03T00:26:16;13.30;;;6.03;;
23866;SDS011;12114;53.404;-1.502;2023-04-03T00:29:00;11.38;;;5.05;;
23866;SDS011;12114;53.404;-1.502;2023-04-03T00:31:44;12.27;;;5.32;;
23866;SDS011;12114;53.404;-1.502;2023-04-03T00:34:29;12.90;;;5.75;;
23866;SDS011;12114;53.404;-1.502;2023-04-03T00:37:13;11.77;;;5.38;;
23866;SDS011;12114;53.404;-1.502;2023-04-03T00:39:57;11.73;;;5.30;;
23866;SDS011;12114;53.404;-1.502;2023-04-03T00:42:41;12.88;;;5.53;;
23866;SDS011;12114;53.404;-1.502;2023-04-03T00:45:36;16.25;;;5.40;;
23866;SDS011;12114;53.404;-1.502;2023-04-03T00:48:26;14.27;;;6.22;;
23866;SDS011;12114;53.404;-1.502;2023-04-03T00:51:19;9.85;;;5.28;;
23866;SDS011;12114;53.404;-1.502;2023-04-03T00:54:05;12.25;;;5.78;;
23866;SDS011;12114;53.404;-1.502;2023-04-03T00:56:51;11.43;;;5.05;;
23866;SDS011;12114;53.404;-1.502;2023-04-03T00:59:37;13.48;;;3.83;;
23866;SDS011;12114;53.404;-1.502;2023-04-03T01:02:21;15.35;;;5.18;;
23866;SDS011;12114;53.404;-1.502;2023-04-03T01:05:05;15.40;;;4.55;;
23866;SDS011;12114;53.404;-1.502;2023-04-03T01:07:50;8.35;;;4.47;;
23866;SDS011;12114;53.404;-1.502;2023-04-03T01:10:35;10.75;;;4.25;;
23866;SDS011;12114;53.404;-1.502;2023-04-03T01:13:23;8.57;;;4.47;;
23866;SDS011;12114;53.404;-1.502;2023-04-03T01:16:08;9.10;;;4.70;;
23866;SDS011;12114;53.404;-1.502;2023-04-03T01:18:52;9.82;;;5.03;;
23866;SDS011;12114;53.404;-1.502;2023-04-03T01:24:36;12.50;;;5.38;;
23866;SDS011;12114;53.404;-1.502;2023-04-03T01:27:22;11.45;;;5.35;;
23866;SDS011;12114;53.404;-1.502;2023-04-03T01:30:06;12.90;;;4.50;;
23866;SDS011;12114;53.404;-1.502;2023-04-03T01:32:51;9.80;;;4.28;;
23866;SDS011;12114;53.404;-1.502;2023-04-03T01:35:35;10.05;;;4.82;;
23866;SDS011;12114;53.404;-1.502;2023-04-03T01:38:18;14.45;;;5.25;;
23866;SDS011;12114;53.404;-1.502;2023-04-03T01:41:03;12.73;;;5.22;;
23866;SDS011;12114;53.404;-1.502;2023-04-03T01:43:47;11.95;;;5.70;;
23866;SDS011;12114;53.404;-1.502;2023-04-03T01:46:32;9.27;;;4.82;;
23866;SDS011;12114;53.404;-1.502;2023-04-03T01:49:15;10.02;;;5.07;;
23866;SDS011;12114;53.404;-1.502;2023-04-03T01:51:59;12.98;;;5.03;;
23866;SDS011;12114;53.404;-1.502;2023-04-03T01:54:43;10.50;;;5.38;;
23866;SDS011;12114;53.404;-1.502;2023-04-03T01:57:27;11.68;;;4.70;;
23866;SDS011;12114;53.404;-1.502;2023-04-03T02:00:11;13.00;;;4.57;;
23866;SDS011;12114;53.404;-1.502;2023-04-03T02:02:56;14.48;;;5.25;;
23866;SDS011;12114;53.404;-1.502;2023-04-03T02:05:40;13.68;;;5.07;;
23866;SDS011;12114;53.404;-1.502;2023-04-03T02:08:24;17.40;;;5.20;;
23866;SDS011;12114;53.404;-1.502;2023-04-03T02:11:08;12.13;;;4.72;;
23866;SDS011;12114;53.404;-1.502;2023-04-03T02:13:52;11.45;;;4.18;;
23866;SDS011;12114;53.404;-1.502;2023-04-03T02:16:36;12.50;;;4.80;;
23866;SDS011;12114;53.404;-1.502;2023-04-03T02:19:20;11.15;;;4.40;;
23866;SDS011;12114;53.404;-1.502;2023-04-03T02:22:04;11.63;;;4.28;;
23866;SDS011;12114;53.404;-1.502;2023-04-03T02:24:48;9.15;;;4.20;;
23866;SDS011;12114;53.404;-1.502;2023-04-03T02:27:32;12.50;;;4.35;;
23866;SDS011;12114;53.404;-1.502;2023-04-03T02:30:17;10.88;;;4.50;;
23866;SDS011;12114;53.404;-1.502;2023-04-03T02:33:01;9.80;;;4.60;;
23866;SDS011;12114;53.404;-1.502;2023-04-03T02:35:45;8.40;;;4.30;;
23866;SDS011;12114;53.404;-1.502;2023-04-03T02:38:36;11.50;;;4.53;;
23866;SDS011;12114;53.404;-1.502;2023-04-03T02:41:20;11.73;;;4.65;;
23866;SDS011;12114;53.404;-1.502;2023-04-03T02:44:05;13.75;;;4.85;;
23866;SDS011;12114;53.404;-1.502;2023-04-03T02:46:49;12.90;;;4.50;;
23866;SDS011;12114;53.404;-1.502;2023-04-03T02:49:33;11.35;;;4.43;;
23866;SDS011;12114;53.404;-1.502;2023-04-03T02:52:17;10.00;;;4.40;;
23866;SDS011;12114;53.404;-1.502;2023-04-03T02:55:01;11.05;;;5.13;;
23866;SDS011;12114;53.404;-1.502;2023-04-03T02:57:45;12.50;;;4.65;;
23866;SDS011;12114;53.404;-1.502;2023-04-03T03:00:29;9.02;;;4.70;;
23866;SDS011;12114;53.404;-1.502;2023-04-03T03:03:13;10.35;;;4.43;;
23866;SDS011;12114;53.404;-1.502;2023-04-03T03:06:05;15.13;;;5.18;;
23866;SDS011;12114;53.404;-1.502;2023-04-03T03:08:49;10.15;;;4.07;;
23866;SDS011;12114;53.404;-1.502;2023-04-03T03:11:33;12.85;;;4.85;;
23866;SDS011;12114;53.404;-1.502;2023-04-03T03:14:17;11.32;;;4.22;;
23866;SDS011;12114;53.404;-1.502;2023-04-03T03:17:01;10.27;;;4.68;;
23866;SDS011;12114;53.404;-1.502;2023-04-03T03:19:45;12.18;;;4.40;;
23866;SDS011;12114;53.404;-1.502;2023-04-03T03:22:29;9.40;;;4.05;;
23866;SDS011;12114;53.404;-1.502;2023-04-03T03:25:13;11.95;;;4.07;;
23866;SDS011;12114;53.404;-1.502;2023-04-03T03:27:57;9.95;;;4.28;;
23866;SDS011;12114;53.404;-1.502;2023-04-03T03:30:41;12.65;;;4.40;;
23866;SDS011;12114;53.404;-1.502;2023-04-03T03:33:25;12.68;;;5.13;;
23866;SDS011;12114;53.404;-1.502;2023-04-03T03:36:10;9.18;;;4.93;;
23866;SDS011;12114;53.404;-1.502;2023-04-03T03:38:54;12.05;;;4.65;;
23866;SDS011;12114;53.404;-1.502;2023-04-03T03:41:38;12.52;;;4.40;;
23866;SDS011;12114;53.404;-1.502;2023-04-03T03:44:22;12.27;;;4.53;;
23866;SDS011;12114;53.404;-1.502;2023-04-03T03:47:06;12.77;;;4.15;;
23866;SDS011;12114;53.404;-1.502;2023-04-03T03:49:50;14.32;;;4.80;;
23866;SDS011;12114;53.404;-1.502;2023-04-03T03:52:34;13.57;;;4.93;;
23866;SDS011;12114;53.404;-1.502;2023-04-03T03:55:18;8.70;;;4.30;;
23866;SDS011;12114;53.404;-1.502;2023-04-03T03:58:02;8.82;;;4.55;;
23866;SDS011;12114;53.404;-1.502;2023-04-03T04:00:47;12.73;;;4.45;;
23866;SDS011;12114;53.404;-1.502;2023-04-03T04:03:31;7.15;;;4.20;;
23866;SDS011;12114;53.404;-1.502;2023-04-03T04:06:15;13.57;;;4.82;;
23866;SDS011;12114;53.404;-1.502;2023-04-03T04:09:00;10.27;;;4.68;;
23866;SDS011;12114;53.404;-1.502;2023-04-03T04:11:44;11.63;;;4.97;;
23866;SDS011;12114;53.404;-1.502;2023-04-03T04:14:28;15.40;;;4.70;;
23866;SDS011;12114;53.404;-1.502;2023-04-03T04:17:12;8.88;;;4.43;;
23866;SDS011;12114;53.404;-1.502;2023-04-03T04:19:57;8.25;;;3.97;;
23866;SDS011;12114;53.404;-1.502;2023-04-03T04:22:40;8.18;;;4.22;;
23866;SDS011;12114;53.404;-1.502;2023-04-03T04:25:25;7.13;;;4.13;;
23866;SDS011;12114;53.404;-1.502;2023-04-03T04:28:09;8.68;;;4.82;;
23866;SDS011;12114;53.404;-1.502;2023-04-03T04:30:53;12.80;;;4.65;;
23866;SDS011;12114;53.404;-1.502;2023-04-03T04:33:37;10.25;;;4.22;;
23866;SDS011;12114;53.404;-1.502;2023-04-03T04:36:21;9.52;;;4.85;;
23866;SDS011;12114;53.404;-1.502;2023-04-03T04:39:05;9.90;;;4.93;;
23866;SDS011;12114;53.404;-1.502;2023-04-03T04:41:50;13.88;;;4.75;;
23866;SDS011;12114;53.404;-1.502;2023-04-03T04:44:33;9.90;;;4.55;;
23866;SDS011;12114;53.404;-1.502;2023-04-03T04:47:17;7.22;;;3.83;;
23866;SDS011;12114;53.404;-1.502;2023-04-03T04:50:02;12.48;;;3.70;;
23866;SDS011;12114;53.404;-1.502;2023-04-03T04:52:46;10.45;;;4.13;;
23866;SDS011;12114;53.404;-1.502;2023-04-03T04:55:30;11.48;;;4.10;;
23866;SDS011;12114;53.404;-1.502;2023-04-03T04:58:14;12.32;;;4.72;;
23866;SDS011;12114;53.404;-1.502;2023-04-03T05:01:01;7.88;;;4.00;;
23866;SDS011;12114;53.404;-1.502;2023-04-03T05:03:46;14.25;;;4.75;;
23866;SDS011;12114;53.404;-1.502;2023-04-03T05:06:31;11.35;;;4.43;;
23866;SDS011;12114;53.404;-1.502;2023-04-03T05:09:16;9.63;;;4.20;;
23866;SDS011;12114;53.404;-1.502;2023-04-03T05:12:00;11.52;;;4.43;;
23866;SDS011;12114;53.404;-1.502;2023-04-03T05:14:45;9.88;;;4.55;;
23866;SDS011;12114;53.404;-1.502;2023-04-03T05:17:29;10.57;;;4.20;;
23866;SDS011;12114;53.404;-1.502;2023-04-03T05:20:13;10.30;;;4.55;;
23866;SDS011;12114;53.404;-1.502;2023-04-03T05:22:57;10.00;;;3.60;;
23866;SDS011;12114;53.404;-1.502;2023-04-03T05:25:41;8.45;;;4.07;;
23866;SDS011;12114;53.404;-1.502;2023-04-03T05:28:25;9.50;;;4.10;;
23866;SDS011;12114;53.404;-1.502;2023-04-03T05:31:09;7.30;;;3.90;;
23866;SDS011;12114;53.404;-1.502;2023-04-03T05:33:53;14.25;;;4.20;;
23866;SDS011;12114;53.404;-1.502;2023-04-03T05:36:37;10.52;;;3.63;;
23866;SDS011;12114;53.404;-1.502;2023-04-03T05:39:21;11.77;;;3.95;;
23866;SDS011;12114;53.404;-1.502;2023-04-03T05:42:06;7.80;;;2.80;;
23866;SDS011;12114;53.404;-1.502;2023-04-03T05:44:50;15.38;;;4.95;;
23866;SDS011;12114;53.404;-1.502;2023-04-03T05:47:34;11.13;;;4.22;;
23866;SDS011;12114;53.404;-1.502;2023-04-03T05:50:18;9.23;;;4.13;;
23866;SDS011;12114;53.404;-1.502;2023-04-03T05:53:02;13.02;;;4.03;;
23866;SDS011;12114;53.404;-1.502;2023-04-03T05:55:46;8.93;;;3.67;;
23866;SDS011;12114;53.404;-1.502;2023-04-03T05:58:30;11.23;;;3.83;;
23866;SDS011;12114;53.404;-1.502;2023-04-03T06:01:14;11.68;;;4.63;;
23866;SDS011;12114;53.404;-1.502;2023-04-03T06:03:59;9.65;;;3.65;;
23866;SDS011;12114;53.404;-1.502;2023-04-03T06:09:27;8.07;;;3.88;;
23866;SDS011;12114;53.404;-1.502;2023-04-03T06:12:12;12.63;;;4.40;;
23866;SDS011;12114;53.404;-1.502;2023-04-03T06:14:56;8.93;;;4.15;;
23866;SDS011;12114;53.404;-1.502;2023-04-03T06:17:41;9.45;;;3.95;;
23866;SDS011;12114;53.404;-1.502;2023-04-03T06:20:25;11.32;;;4.05;;
23866;SDS011;12114;53.404;-1.502;2023-04-03T06:23:09;13.98;;;4.68;;
23866;SDS011;12114;53.404;-1.502;2023-04-03T06:25:54;10.35;;;4.80;;
23866;SDS011;12114;53.404;-1.502;2023-04-03T06:28:38;17.48;;;5.00;;
23866;SDS011;12114;53.404;-1.502;2023-04-03T06:31:22;7.10;;;4.50;;
23866;SDS011;12114;53.404;-1.502;2023-04-03T06:34:06;11.43;;;4.82;;
23866;SDS011;12114;53.404;-1.502;2023-04-03T06:36:51;12.60;;;5.22;;
23866;SDS011;12114;53.404;-1.502;2023-04-03T06:39:35;10.70;;;4.88;;
23866;SDS011;12114;53.404;-1.502;2023-04-03T06:42:19;16.23;;;6.10;;
23866;SDS011;12114;53.404;-1.502;2023-04-03T06:45:04;14.27;;;5.60;;
23866;SDS011;12114;53.404;-1.502;2023-04-03T06:47:48;10.60;;;6.15;;
23866;SDS011;12114;53.404;-1.502;2023-04-03T06:50:32;14.20;;;7.35;;
23866;SDS011;12114;53.404;-1.502;2023-04-03T06:53:16;12.48;;;6.78;;
23866;SDS011;12114;53.404;-1.502;2023-04-03T06:56:00;14.63;;;6.60;;
23866;SDS011;12114;53.404;-1.502;2023-04-03T06:58:44;11.95;;;6.70;;
23866;SDS011;12114;53.404;-1.502;2023-04-03T07:01:29;15.48;;;7.18;;
23866;SDS011;12114;53.404;-1.502;2023-04-03T07:04:13;12.82;;;7.45;;
23866;SDS011;12114;53.404;-1.502;2023-04-03T07:06:57;12.77;;;6.75;;
23866;SDS011;12114;53.404;-1.502;2023-04-03T07:09:41;18.00;;;8.30;;
23866;SDS011;12114;53.404;-1.502;2023-04-03T07:12:26;16.25;;;8.55;;
23866;SDS011;12114;53.404;-1.502;2023-04-03T07:15:10;15.63;;;8.13;;
23866;SDS011;12114;53.404;-1.502;2023-04-03T07:17:56;15.10;;;7.30;;
23866;SDS011;12114;53.404;-1.502;2023-04-03T07:20:40;11.10;;;6.63;;
23866;SDS011;12114;53.404;-1.502;2023-04-03T07:23:24;16.05;;;6.97;;
23866;SDS011;12114;53.404;-1.502;2023-04-03T07:26:09;9.10;;;5.88;;
23866;SDS011;12114;53.404;-1.502;2023-04-03T07:28:52;14.25;;;6.43;;
23866;SDS011;12114;53.404;-1.502;2023-04-03T07:31:38;11.18;;;5.68;;
23866;SDS011;12114;53.404;-1.502;2023-04-03T07:34:22;13.38;;;5.45;;
23866;SDS011;12114;53.404;-1.502;2023-04-03T07:37:06;9.77;;;6.13;;
23866;SDS011;12114;53.404;-1.502;2023-04-03T07:39:50;14.02;;;6.30;;
23866;SDS011;12114;53.404;-1.502;2023-04-03T07:42:34;10.68;;;6.20;;
23866;SDS011;12114;53.404;-1.502;2023-04-03T07:45:18;12.02;;;6.50;;
23866;SDS011;12114;53.404;-1.502;2023-04-03T07:48:02;10.23;;;5.55;;
23866;SDS011;12114;53.404;-1.502;2023-04-03T07:50:46;12.07;;;6.03;;
23866;SDS011;12114;53.404;-1.502;2023-04-03T07:53:31;11.18;;;5.38;;
23866;SDS011;12114;53.404;-1.502;2023-04-03T07:56:16;10.40;;;5.38;;
23866;SDS011;12114;53.404;-1.502;2023-04-03T07:58:59;16.83;;;5.40;;
23866;SDS011;12114;53.404;-1.502;2023-04-03T08:01:43;15.38;;;5.07;;
23866;SDS011;12114;53.404;-1.502;2023-04-03T08:04:27;13.25;;;4.75;;
23866;SDS011;12114;53.404;-1.502;2023-04-03T08:07:11;15.23;;;5.22;;
23866;SDS011;12114;53.404;-1.502;2023-04-03T08:09:55;12.73;;;6.05;;
23866;SDS011;12114;53.404;-1.502;2023-04-03T08:12:41;13.73;;;6.53;;
23866;SDS011;12114;53.404;-1.502;2023-04-03T08:15:25;15.88;;;6.82;;
23866;SDS011;12114;53.404;-1.502;2023-04-03T08:18:10;14.57;;;7.10;;
23866;SDS011;12114;53.404;-1.502;2023-04-03T08:20:54;19.77;;;7.20;;
23866;SDS011;12114;53.404;-1.502;2023-04-03T08:23:38;19.67;;;7.30;;
23866;SDS011;12114;53.404;-1.502;2023-04-03T08:26:23;15.10;;;7.03;;
23866;SDS011;12114;53.404;-1.502;2023-04-03T08:29:06;16.38;;;6.25;;
23866;SDS011;12114;53.404;-1.502;2023-04-03T08:31:50;12.15;;;6.30;;
23866;SDS011;12114;53.404;-1.502;2023-04-03T08:34:34;14.82;;;5.93;;
23866;SDS011;12114;53.404;-1.502;2023-04-03T08:37:20;12.93;;;6.07;;
23866;SDS011;12114;53.404;-1.502;2023-04-03T08:40:05;12.82;;;4.50;;
23866;SDS011;12114;53.404;-1.502;2023-04-03T08:45:48;17.20;;;5.13;;
23866;SDS011;12114;53.404;-1.502;2023-04-03T08:48:35;16.48;;;5.32;;
23866;SDS011;12114;53.404;-1.502;2023-04-03T08:51:20;13.45;;;4.18;;
23866;SDS011;12114;53.404;-1.502;2023-04-03T08:54:05;13.68;;;3.80;;
23866;SDS011;12114;53.404;-1.502;2023-04-03T08:56:52;5.28;;;1.65;;
23866;SDS011;12114;53.404;-1.502;2023-04-03T08:59:36;6.45;;;1.77;;
23866;SDS011;12114;53.404;-1.502;2023-04-03T09:05:14;11.05;;;1.48;;
23866;SDS011;12114;53.404;-1.502;2023-04-03T09:08:00;5.13;;;1.40;;
23866;SDS011;12114;53.404;-1.502;2023-04-03T09:10:47;7.78;;;1.75;;
23866;SDS011;12114;53.404;-1.502;2023-04-03T09:16:19;7.55;;;1.55;;
23866;SDS011;12114;53.404;-1.502;2023-04-03T09:19:31;10.35;;;1.80;;
23866;SDS011;12114;53.404;-1.502;2023-04-03T09:22:13;12.43;;;1.58;;
23866;SDS011;12114;53.404;-1.502;2023-04-03T09:25:02;7.13;;;2.17;;
23866;SDS011;12114;53.404;-1.502;2023-04-03T09:27:49;9.70;;;1.85;;
23866;SDS011;12114;53.404;-1.502;2023-04-03T09:30:35;12.70;;;2.70;;
23866;SDS011;12114;53.404;-1.502;2023-04-03T09:33:19;7.85;;;2.50;;
23866;SDS011;12114;53.404;-1.502;2023-04-03T09:36:05;6.63;;;2.38;;
23866;SDS011;12114;53.404;-1.502;2023-04-03T09:39:02;10.23;;;2.20;;
23866;SDS011;12114;53.404;-1.502;2023-04-03T09:44:39;15.05;;;2.38;;
23866;SDS011;12114;53.404;-1.502;2023-04-03T09:47:28;7.13;;;1.83;;
23866;SDS011;12114;53.404;-1.502;2023-04-03T09:53:07;8.68;;;2.10;;
23866;SDS011;12114;53.404;-1.502;2023-04-03T10:01:46;12.50;;;2.40;;
23866;SDS011;12114;53.404;-1.502;2023-04-03T10:04:40;9.55;;;2.38;;
23866;SDS011;12114;53.404;-1.502;2023-04-03T10:07:31;7.27;;;1.50;;
23866;SDS011;12114;53.404;-1.502;2023-04-03T10:13:35;4.70;;;1.38;;
23866;SDS011;12114;53.404;-1.502;2023-04-03T10:16:12;5.65;;;1.80;;
23866;SDS011;12114;53.404;-1.502;2023-04-03T10:21:47;8.50;;;2.30;;
23866;SDS011;12114;53.404;-1.502;2023-04-03T10:36:19;11.30;;;1.83;;
23866;SDS011;12114;53.404;-1.502;2023-04-03T10:39:11;6.10;;;1.52;;
23866;SDS011;12114;53.404;-1.502;2023-04-03T10:42:02;5.57;;;1.25;;
23866;SDS011;12114;53.404;-1.502;2023-04-03T10:50:32;8.50;;;1.65;;
23866;SDS011;12114;53.404;-1.502;2023-04-03T10:53:30;5.65;;;1.58;;
23866;SDS011;12114;53.404;-1.502;2023-04-03T10:59:47;7.22;;;1.67;;
23866;SDS011;12114;53.404;-1.502;2023-04-03T11:02:13;8.32;;;1.60;;
23866;SDS011;12114;53.404;-1.502;2023-04-03T11:05:07;5.53;;;1.70;;
23866;SDS011;12114;53.404;-1.502;2023-04-03T11:07:57;10.43;;;2.10;;
23866;SDS011;12114;53.404;-1.502;2023-04-03T11:10:47;5.35;;;2.15;;
23866;SDS011;12114;53.404;-1.502;2023-04-03T11:16:33;7.80;;;1.85;;
23866;SDS011;12114;53.404;-1.502;2023-04-03T11:27:58;9.38;;;2.10;;
23866;SDS011;12114;53.404;-1.502;2023-04-03T11:30:45;6.88;;;1.83;;
23866;SDS011;12114;53.404;-1.502;2023-04-03T11:36:27;9.35;;;2.13;;
23866;SDS011;12114;53.404;-1.502;2023-04-03T11:48:06;10.85;;;2.42;;
23866;SDS011;12114;53.404;-1.502;2023-04-03T11:53:54;8.82;;;1.83;;
23866;SDS011;12114;53.404;-1.502;2023-04-03T11:56:38;8.02;;;1.70;;
23866;SDS011;12114;53.404;-1.502;2023-04-03T11:59:22;9.02;;;2.25;;
23866;SDS011;12114;53.404;-1.502;2023-04-03T12:02:24;7.13;;;1.92;;
23866;SDS011;12114;53.404;-1.502;2023-04-03T12:05:27;6.97;;;1.98;;
23866;SDS011;12114;53.404;-1.502;2023-04-03T12:19:38;9.30;;;2.13;;
23866;SDS011;12114;53.404;-1.502;2023-04-03T12:22:26;4.70;;;1.73;;
23866;SDS011;12114;53.404;-1.502;2023-04-03T12:25:40;8.20;;;2.20;;
23866;SDS011;12114;53.404;-1.502;2023-04-03T12:28:22;8.73;;;1.90;;
23866;SDS011;12114;53.404;-1.502;2023-04-03T12:31:05;6.40;;;1.80;;
23866;SDS011;12114;53.404;-1.502;2023-04-03T12:39:43;9.18;;;2.30;;
23866;SDS011;12114;53.404;-1.502;2023-04-03T12:45:47;8.65;;;2.13;;
23866;SDS011;12114;53.404;-1.502;2023-04-03T12:48:52;6.88;;;1.80;;
23866;SDS011;12114;53.404;-1.502;2023-04-03T12:51:40;8.57;;;1.80;;
23866;SDS011;12114;53.404;-1.502;2023-04-03T12:54:27;5.15;;;1.70;;
23866;SDS011;12114;53.404;-1.502;2023-04-03T12:57:16;8.75;;;2.13;;
23866;SDS011;12114;53.404;-1.502;2023-04-03T13:00:00;5.05;;;1.65;;
23866;SDS011;12114;53.404;-1.502;2023-04-03T13:03:02;8.15;;;2.15;;
23866;SDS011;12114;53.404;-1.502;2023-04-03T13:05:47;8.60;;;2.00;;
23866;SDS011;12114;53.404;-1.502;2023-04-03T13:08:31;6.55;;;1.85;;
23866;SDS011;12114;53.404;-1.502;2023-04-03T13:11:16;7.67;;;2.00;;
23866;SDS011;12114;53.404;-1.502;2023-04-03T13:14:05;5.40;;;2.25;;
23866;SDS011;12114;53.404;-1.502;2023-04-03T13:16:53;8.57;;;2.03;;
23866;SDS011;12114;53.404;-1.502;2023-04-03T13:19:38;9.30;;;2.08;;
23866;SDS011;12114;53.404;-1.502;2023-04-03T13:22:31;8.65;;;2.30;;
23866;SDS011;12114;53.404;-1.502;2023-04-03T13:25:17;7.88;;;2.00;;
23866;SDS011;12114;53.404;-1.502;2023-04-03T13:28:02;8.30;;;2.20;;
23866;SDS011;12114;53.404;-1.502;2023-04-03T13:33:33;6.22;;;2.35;;
23866;SDS011;12114;53.404;-1.502;2023-04-03T13:36:18;7.63;;;2.00;;
23866;SDS011;12114;53.404;-1.502;2023-04-03T13:41:51;7.07;;;2.00;;
23866;SDS011;12114;53.404;-1.502;2023-04-03T13:44:35;9.45;;;2.72;;
23866;SDS011;12114;53.404;-1.502;2023-04-03T13:47:21;7.78;;;2.03;;
23866;SDS011;12114;53.404;-1.502;2023-04-03T13:53:00;8.15;;;2.38;;
23866;SDS011;12114;53.404;-1.502;2023-04-03T13:56:20;9.00;;;2.22;;
23866;SDS011;12114;53.404;-1.502;2023-04-03T14:02:40;5.70;;;1.83;;
23866;SDS011;12114;53.404;-1.502;2023-04-03T14:05:00;8.73;;;2.72;;
23866;SDS011;12114;53.404;-1.502;2023-04-03T14:07:45;8.98;;;2.13;;
23866;SDS011;12114;53.404;-1.502;2023-04-03T14:10:29;6.97;;;1.90;;
23866;SDS011;12114;53.404;-1.502;2023-04-03T14:13:14;4.43;;;1.65;;
23866;SDS011;12114;53.404;-1.502;2023-04-03T14:15:59;11.40;;;2.47;;
23866;SDS011;12114;53.404;-1.502;2023-04-03T14:18:44;8.50;;;2.42;;
23866;SDS011;12114;53.404;-1.502;2023-04-03T14:21:28;5.07;;;1.88;;
23866;SDS011;12114;53.404;-1.502;2023-04-03T14:24:12;6.90;;;2.13;;
23866;SDS011;12114;53.404;-1.502;2023-04-03T14:26:56;9.23;;;2.15;;
23866;SDS011;12114;53.404;-1.502;2023-04-03T14:29:40;8.50;;;2.25;;
23866;SDS011;12114;53.404;-1.502;2023-04-03T14:32:24;8.85;;;2.08;;
23866;SDS011;12114;53.404;-1.502;2023-04-03T14:35:09;7.68;;;2.30;;
23866;SDS011;12114;53.404;-1.502;2023-04-03T14:37:54;5.88;;;2.08;;
23866;SDS011;12114;53.404;-1.502;2023-04-03T14:43:23;7.00;;;2.20;;
23866;SDS011;12114;53.404;-1.502;2023-04-03T14:46:12;8.35;;;2.10;;
23866;SDS011;12114;53.404;-1.502;2023-04-03T14:48:57;12.98;;;2.70;;
23866;SDS011;12114;53.404;-1.502;2023-04-03T14:51:40;6.38;;;2.22;;
23866;SDS011;12114;53.404;-1.502;2023-04-03T14:54:24;7.07;;;2.60;;
23866;SDS011;12114;53.404;-1.502;2023-04-03T14:57:13;6.75;;;2.13;;
23866;SDS011;12114;53.404;-1.502;2023-04-03T14:59:58;6.63;;;2.10;;
23866;SDS011;12114;53.404;-1.502;2023-04-03T15:02:42;8.30;;;2.83;;
23866;SDS011;12114;53.404;-1.502;2023-04-03T15:05:26;6.43;;;2.38;;
23866;SDS011;12114;53.404;-1.502;2023-04-03T15:08:17;8.25;;;2.25;;
23866;SDS011;12114;53.404;-1.502;2023-04-03T15:11:01;8.60;;;2.53;;
23866;SDS011;12114;53.404;-1.502;2023-04-03T15:13:45;6.22;;;2.63;;
23866;SDS011;12114;53.404;-1.502;2023-04-03T15:16:30;6.20;;;2.33;;
23866;SDS011;12114;53.404;-1.502;2023-04-03T15:19:14;12.00;;;2.22;;
23866;SDS011;12114;53.404;-1.502;2023-04-03T15:21:58;8.35;;;2.30;;
23866;SDS011;12114;53.404;-1.502;2023-04-03T15:24:42;4.63;;;2.03;;
23866;SDS011;12114;53.404;-1.502;2023-04-03T15:27:26;8.60;;;2.05;;
23866;SDS011;12114;53.404;-1.502;2023-04-03T15:30:16;6.65;;;2.20;;
23866;SDS011;12114;53.404;-1.502;2023-04-03T15:33:00;12.43;;;2.60;;
23866;SDS011;12114;53.404;-1.502;2023-04-03T15:35:44;7.18;;;2.40;;
23866;SDS011;12114;53.404;-1.502;2023-04-03T15:38:28;8.07;;;2.33;;
23866;SDS011;12114;53.404;-1.502;2023-04-03T15:41:12;6.30;;;2.25;;
23866;SDS011;12114;53.404;-1.502;2023-04-03T15:43:56;6.28;;;2.15;;
23866;SDS011;12114;53.404;-1.502;2023-04-03T15:46:40;4.22;;;1.98;;
23866;SDS011;12114;53.404;-1.502;2023-04-03T15:49:25;7.07;;;2.13;;
23866;SDS011;12114;53.404;-1.502;2023-04-03T15:52:09;8.07;;;2.38;;
23866;SDS011;12114;53.404;-1.502;2023-04-03T15:54:53;5.65;;;2.20;;
23866;SDS011;12114;53.404;-1.502;2023-04-03T15:57:37;4.57;;;2.55;;
23866;SDS011;12114;53.404;-1.502;2023-04-03T16:00:21;8.30;;;2.85;;
23866;SDS011;12114;53.404;-1.502;2023-04-03T16:03:08;11.85;;;3.10;;
23866;SDS011;12114;53.404;-1.502;2023-04-03T16:05:53;7.10;;;2.88;;
23866;SDS011;12114;53.404;-1.502;2023-04-03T16:08:37;6.65;;;2.58;;
23866;SDS011;12114;53.404;-1.502;2023-04-03T16:11:21;7.65;;;2.80;;
23866;SDS011;12114;53.404;-1.502;2023-04-03T16:14:05;6.38;;;2.70;;
23866;SDS011;12114;53.404;-1.502;2023-04-03T16:16:49;9.88;;;2.55;;
23866;SDS011;12114;53.404;-1.502;2023-04-03T16:19:33;7.75;;;2.85;;
23866;SDS011;12114;53.404;-1.502;2023-04-03T16:22:17;7.20;;;2.45;;
23866;SDS011;12114;53.404;-1.502;2023-04-03T16:25:01;5.07;;;2.28;;
23866;SDS011;12114;53.404;-1.502;2023-04-03T16:27:46;5.93;;;2.38;;
23866;SDS011;12114;53.404;-1.502;2023-04-03T16:30:30;8.43;;;2.70;;
23866;SDS011;12114;53.404;-1.502;2023-04-03T16:33:14;6.45;;;2.50;;
23866;SDS011;12114;53.404;-1.502;2023-04-03T16:35:58;5.03;;;2.10;;
23866;SDS011;12114;53.404;-1.502;2023-04-03T16:38:42;7.00;;;2.45;;
23866;SDS011;12114;53.404;-1.502;2023-04-03T16:41:26;6.20;;;2.50;;
23866;SDS011;12114;53.404;-1.502;2023-04-03T16:44:10;9.15;;;3.10;;
23866;SDS011;12114;53.404;-1.502;2023-04-03T16:46:54;9.63;;;2.72;;
23866;SDS011;12114;53.404;-1.502;2023-04-03T16:49:42;4.30;;;2.53;;
23866;SDS011;12114;53.404;-1.502;2023-04-03T16:52:26;6.57;;;2.53;;
23866;SDS011;12114;53.404;-1.502;2023-04-03T16:55:10;7.70;;;2.97;;
23866;SDS011;12114;53.404;-1.502;2023-04-03T16:57:54;4.78;;;2.70;;
23866;SDS011;12114;53.404;-1.502;2023-04-03T17:00:39;8.60;;;2.97;;
23866;SDS011;12114;53.404;-1.502;2023-04-03T17:03:22;5.85;;;2.60;;
23866;SDS011;12114;53.404;-1.502;2023-04-03T17:06:09;7.32;;;3.05;;
23866;SDS011;12114;53.404;-1.502;2023-04-03T17:08:59;5.68;;;2.67;;
23866;SDS011;12114;53.404;-1.502;2023-04-03T17:11:43;6.22;;;2.90;;
23866;SDS011;12114;53.404;-1.502;2023-04-03T17:14:27;7.32;;;3.08;;
23866;SDS011;12114;53.404;-1.502;2023-04-03T17:17:11;6.20;;;2.53;;
23866;SDS011;12114;53.404;-1.502;2023-04-03T17:19:55;8.50;;;2.83;;
23866;SDS011;12114;53.404;-1.502;2023-04-03T17:22:39;5.43;;;2.80;;
23866;SDS011;12114;53.404;-1.502;2023-04-03T17:25:23;11.00;;;3.40;;
23866;SDS011;12114;53.404;-1.502;2023-04-03T17:28:07;5.70;;;3.20;;
23866;SDS011;12114;53.404;-1.502;2023-04-03T17:30:51;6.00;;;3.28;;
23866;SDS011;12114;53.404;-1.502;2023-04-03T17:33:35;9.88;;;3.95;;
23866;SDS011;12114;53.404;-1.502;2023-04-03T17:36:19;6.22;;;3.60;;
23866;SDS011;12114;53.404;-1.502;2023-04-03T17:39:03;6.13;;;2.75;;
23866;SDS011;12114;53.404;-1.502;2023-04-03T17:41:47;5.75;;;3.10;;
23866;SDS011;12114;53.404;-1.502;2023-04-03T17:44:32;5.43;;;3.00;;
23866;SDS011;12114;53.404;-1.502;2023-04-03T17:47:16;5.90;;;2.50;;
23866;SDS011;12114;53.404;-1.502;2023-04-03T17:50:00;6.75;;;3.38;;
23866;SDS011;12114;53.404;-1.502;2023-04-03T17:52:44;5.43;;;3.00;;
23866;SDS011;12114;53.404;-1.502;2023-04-03T17:55:28;6.43;;;3.28;;
23866;SDS011;12114;53.404;-1.502;2023-04-03T17:58:12;6.20;;;2.80;;
23866;SDS011;12114;53.404;-1.502;2023-04-03T18:00:56;6.40;;;3.00;;
23866;SDS011;12114;53.404;-1.502;2023-04-03T18:03:40;7.45;;;2.80;;
23866;SDS011;12114;53.404;-1.502;2023-04-03T18:06:28;7.43;;;2.80;;
23866;SDS011;12114;53.404;-1.502;2023-04-03T18:09:14;9.88;;;3.00;;